Time;durP1;ratioP1;P1;durP2;ratioP2;P2;SDS_P1;SDS_P2;PMS_P1;PMS_P2;Temp;Humidity;BMP_temperature;BMP_pressure;BME280_temperature;BME280_humidity;BME280_pressure;Samples;Min_cycle;Max_cycle;Signal;HPM_P1;HPM_P2
2022/03/11 00:00:21;;;;;;;53.80;49.53;;;;;;;-4.85;100.00;102379.75;5123913;27;20048;-80
2022/03/11 00:02:48;;;;;;;52.60;48.45;;;;;;;-4.80;100.00;102376.97;5121746;27;20054;-80
2022/03/11 00:05:16;;;;;;;55.88;51.72;;;;;;;-4.85;100.00;102373.72;5127966;27;20102;-80
2022/03/11 00:07:43;;;;;;;56.63;51.88;;;;;;;-4.86;100.00;102372.88;5128006;27;20531;-83
2022/03/11 00:10:10;;;;;;;72.20;60.80;;;;;;;-4.95;100.00;102375.03;5131255;27;20044;-82
2022/03/11 00:15:09;;;;;;;56.30;52.30;;;;;;;-5.04;100.00;102376.25;5094348;27;20415;-80
2022/03/11 00:17:36;;;;;;;51.60;47.75;;;;;;;-5.02;100.00;102384.81;5052139;28;20052;-82
2022/03/11 00:20:03;;;;;;;53.35;49.70;;;;;;;-5.05;100.00;102379.78;5059988;28;20053;-82
2022/03/11 00:22:30;;;;;;;57.83;53.33;;;;;;;-5.22;100.00;102372.69;5061004;28;20452;-82
2022/03/11 00:24:56;;;;;;;55.90;51.80;;;;;;;-5.22;100.00;102384.81;5053824;28;20048;-80
2022/03/11 00:27:24;;;;;;;51.63;47.58;;;;;;;-5.19;100.00;102374.31;5057908;28;20049;-80
2022/03/11 00:29:50;;;;;;;52.35;48.80;;;;;;;-5.24;100.00;102376.25;5057934;28;20477;-79
2022/03/11 00:32:18;;;;;;;56.72;52.72;;;;;;;-5.22;100.00;102375.28;5058272;28;20053;-79
2022/03/11 00:34:45;;;;;;;53.00;49.30;;;;;;;-5.20;100.00;102370.88;5057096;28;20528;-80
2022/03/11 00:37:12;;;;;;;52.03;48.33;;;;;;;-5.24;100.00;102369.31;5058090;28;20451;-80
2022/03/11 00:39:39;;;;;;;55.15;50.67;;;;;;;-5.33;100.00;102373.13;5057098;28;20119;-80
2022/03/11 00:42:06;;;;;;;104.80;67.07;;;;;;;-5.31;100.00;102363.53;5058532;28;20096;-82
2022/03/11 00:44:32;;;;;;;57.65;52.95;;;;;;;-5.30;100.00;102374.75;5057121;28;20045;-82
2022/03/11 00:46:59;;;;;;;57.67;53.45;;;;;;;-5.32;100.00;102366.22;5054694;28;20518;-81
2022/03/11 00:49:27;;;;;;;57.97;53.83;;;;;;;-5.33;100.00;102367.09;5056504;28;20512;-80
2022/03/11 00:51:54;;;;;;;53.53;49.45;;;;;;;-5.36;100.00;102365.47;5054950;28;20041;-80
2022/03/11 00:54:20;;;;;;;55.15;51.20;;;;;;;-5.39;100.00;102367.34;5063351;28;20052;-82
2022/03/11 00:56:47;;;;;;;54.80;50.95;;;;;;;-5.45;100.00;102367.59;5059292;28;20492;-80
2022/03/11 00:59:15;;;;;;;58.72;54.53;;;;;;;-5.57;100.00;102362.03;5059798;28;20123;-80
2022/03/11 01:01:42;;;;;;;55.05;50.78;;;;;;;-5.55;100.00;102367.97;5059401;28;20077;-80
2022/03/11 01:04:09;;;;;;;59.60;55.55;;;;;;;-5.63;100.00;102366.59;5052084;28;20131;-79
2022/03/11 01:06:37;;;;;;;53.28;49.13;;;;;;;-5.65;100.00;102363.22;5059601;28;20049;-82
2022/03/11 01:09:05;;;;;;;57.38;53.15;;;;;;;-5.54;100.00;102361.03;5052006;28;20049;-83
2022/03/11 01:11:31;;;;;;;58.60;54.45;;;;;;;-5.58;100.00;102364.66;5058812;28;20133;-83
2022/03/11 01:13:58;;;;;;;59.15;54.90;;;;;;;-5.61;100.00;102364.78;5060417;28;20053;-80
2022/03/11 01:16:25;;;;;;;59.25;55.10;;;;;;;-5.53;100.00;102363.59;5059068;28;20049;-80
2022/03/11 01:18:52;;;;;;;58.28;54.10;;;;;;;-5.62;100.00;102356.19;5061630;28;20477;-81
2022/03/11 01:21:18;;;;;;;53.63;49.78;;;;;;;-5.63;100.00;102362.25;5059285;28;20505;-80
2022/03/11 01:23:47;;;;;;;62.20;57.90;;;;;;;-5.58;100.00;102357.72;5054720;28;20049;-81
2022/03/11 01:26:14;;;;;;;57.25;53.22;;;;;;;-5.49;100.00;102366.88;5046079;28;20114;-81
2022/03/11 01:28:42;;;;;;;52.85;48.65;;;;;;;-5.47;100.00;102364.25;5044474;28;20045;-81
2022/03/11 01:31:09;;;;;;;54.58;50.45;;;;;;;-5.50;100.00;102359.19;5037690;28;20501;-81
2022/03/11 01:33:35;;;;;;;52.80;48.97;;;;;;;-5.53;100.00;102362.75;5034265;28;20058;-82
2022/03/11 01:36:02;;;;;;;62.03;56.65;;;;;;;-5.52;100.00;102364.41;5045426;28;20054;-81
2022/03/11 01:38:29;;;;;;;65.88;59.83;;;;;;;-5.42;100.00;102362.28;5046929;28;20122;-80
2022/03/11 01:40:57;;;;;;;59.75;55.38;;;;;;;-5.47;100.00;102367.69;5044429;28;20061;-83
2022/03/11 01:43:24;;;;;;;61.72;57.63;;;;;;;-5.57;100.00;102361.16;5042086;28;20123;-82
2022/03/11 01:45:50;;;;;;;54.95;51.28;;;;;;;-5.52;100.00;102361.81;5038356;28;20122;-80
2022/03/11 01:48:17;;;;;;;57.80;53.92;;;;;;;-5.64;100.00;102360.56;5043058;28;20045;-82
2022/03/11 01:50:44;;;;;;;60.50;56.05;;;;;;;-5.60;100.00;102369.91;5046182;28;20536;-82
2022/03/11 01:53:12;;;;;;;56.67;52.50;;;;;;;-5.56;100.00;102374.06;5046586;28;20057;-80
2022/03/11 01:55:40;;;;;;;55.78;51.92;;;;;;;-5.60;100.00;102375.09;5043481;28;20071;-82
2022/03/11 01:58:11;;;;;;;59.80;55.55;;;;;;;-5.61;100.00;102367.38;5044714;28;20049;-80
2022/03/11 02:00:40;;;;;;;53.45;49.65;;;;;;;-5.65;100.00;102365.81;5044081;28;20117;-81
2022/03/11 02:03:07;;;;;;;57.00;52.80;;;;;;;-5.74;100.00;102372.19;5040650;28;20455;-80
2022/03/11 02:05:34;;;;;;;53.80;50.13;;;;;;;-5.75;100.00;102380.84;5042665;28;20871;-80
2022/03/11 02:08:01;;;;;;;58.75;54.22;;;;;;;-5.79;100.00;102376.72;5044638;28;20571;-82
2022/03/11 02:10:29;;;;;;;57.80;53.90;;;;;;;-5.82;100.00;102379.41;5044318;28;20114;-80
2022/03/11 02:12:57;;;;;;;61.42;57.20;;;;;;;-5.85;100.00;102375.19;5046121;28;20111;-81
2022/03/11 02:15:25;;;;;;;51.55;47.30;;;;;;;-6.02;100.00;102378.47;5039446;28;20146;-80
2022/03/11 02:17:52;;;;;;;55.70;51.30;;;;;;;-6.18;100.00;102382.53;5046702;28;20119;-82
2022/03/11 02:20:19;;;;;;;57.08;52.63;;;;;;;-6.09;100.00;102377.00;5045184;28;20050;-81
2022/03/11 02:22:51;;;;;;;54.15;49.88;;;;;;;-6.05;100.00;102376.00;5043559;28;20059;-81
2022/03/11 02:25:19;;;;;;;;;;;;;;;-6.18;100.00;102371.34;5046366;28;20045;-81
2022/03/11 02:27:46;;;;;;;54.33;50.22;;;;;;;-6.36;100.00;102373.69;5046215;28;19924;-79
2022/03/11 02:30:15;;;;;;;56.53;52.42;;;;;;;-6.55;100.00;102375.28;5042058;28;20136;-82
2022/03/11 02:32:42;;;;;;;56.17;51.90;;;;;;;-6.48;100.00;102377.56;5037838;28;20044;-80
2022/03/11 02:35:09;;;;;;;56.58;52.67;;;;;;;-6.66;100.00;102385.13;5040869;28;20118;-82
2022/03/11 02:37:37;;;;;;;58.30;53.90;;;;;;;-6.88;100.00;102382.47;5041730;28;20054;-79
2022/03/11 02:40:05;;;;;;;56.22;52.22;;;;;;;-7.02;100.00;102378.63;5037688;28;20049;-80
2022/03/11 02:42:33;;;;;;;52.03;48.25;;;;;;;-7.11;100.00;102390.97;5043843;28;20065;-81
2022/03/11 02:45:01;;;;;;;54.50;50.55;;;;;;;-7.20;100.00;102400.75;5051215;28;20064;-81
2022/03/11 02:47:28;;;;;;;57.35;53.15;;;;;;;-7.16;100.00;102394.56;5040258;28;20046;-79
2022/03/11 02:49:55;;;;;;;58.97;54.75;;;;;;;-7.06;100.00;102404.59;5042480;28;20045;-80
2022/03/11 02:52:22;;;;;;;56.60;52.35;;;;;;;-6.96;100.00;102400.78;5045532;28;20045;-81
2022/03/11 02:57:29;;;;;;;53.88;50.05;;;;;;;-7.15;100.00;102398.00;5165350;27;20825;-81
2022/03/11 02:59:56;;;;;;;51.50;47.83;;;;;;;-7.20;100.00;102400.75;5152332;27;20065;-82
2022/03/11 03:05:22;;;;;;;61.22;57.03;;;;;;;-7.22;100.00;102414.59;5084135;27;20788;-80
2022/03/11 03:07:49;;;;;;;59.67;55.58;;;;;;;-7.63;100.00;102409.00;5079917;28;20108;-80
2022/03/11 03:10:15;;;;;;;62.50;57.85;;;;;;;-7.65;100.00;102411.63;5077163;28;20103;-82
2022/03/11 03:12:42;;;;;;;63.63;59.05;;;;;;;-7.64;100.00;102415.88;5080920;28;20052;-81
2022/03/11 03:15:10;;;;;;;65.38;60.00;;;;;;;-7.76;100.00;102413.69;5078632;28;20048;-82
2022/03/11 03:17:37;;;;;;;66.03;60.88;;;;;;;-7.74;100.00;102418.81;5068782;28;20061;-81
2022/03/11 03:20:05;;;;;;;66.10;60.58;;;;;;;-7.94;100.00;102407.34;5077803;28;20114;-82
2022/03/11 03:22:34;;;;;;;82.40;67.00;;;;;;;-8.01;100.00;102413.56;5076663;28;20106;-80
2022/03/11 03:25:00;;;;;;;72.95;65.55;;;;;;;-7.99;100.00;102414.34;5075883;28;20057;-81
2022/03/11 03:27:27;;;;;;;68.40;62.03;;;;;;;-8.32;100.00;102411.88;5082502;28;20051;-81
2022/03/11 03:29:54;;;;;;;72.97;65.80;;;;;;;-8.37;100.00;102418.03;5077382;28;20052;-79
2022/03/11 03:32:21;;;;;;;73.00;65.32;;;;;;;-8.35;100.00;102422.28;5085407;28;20456;-81
2022/03/11 03:34:47;;;;;;;65.97;59.05;;;;;;;-8.23;100.00;102412.47;5069139;28;20049;-82
2022/03/11 03:37:14;;;;;;;73.45;63.80;;;;;;;-8.11;100.00;102422.44;5076215;28;20052;-80
2022/03/11 03:39:43;;;;;;;84.78;68.38;;;;;;;-8.43;100.00;102413.94;5073897;28;20049;-81
2022/03/11 03:42:10;;;;;;;89.72;73.53;;;;;;;-8.30;100.00;102419.56;5075610;28;20436;-81
2022/03/11 03:44:36;;;;;;;82.15;69.22;;;;;;;-8.23;100.00;102415.06;5077996;28;20041;-80
2022/03/11 03:47:04;;;;;;;77.03;68.93;;;;;;;-8.16;100.00;102408.88;5067740;28;20048;-79
2022/03/11 03:49:31;;;;;;;75.28;67.13;;;;;;;-8.24;100.00;102405.66;5077267;28;20140;-82
2022/03/11 03:51:57;;;;;;;78.70;70.38;;;;;;;-8.51;100.00;102408.13;5078344;28;20057;-81
2022/03/11 03:54:24;;;;;;;80.50;72.22;;;;;;;-8.39;100.00;102415.53;5075489;28;20044;-80
2022/03/11 03:56:53;;;;;;;76.70;69.35;;;;;;;-8.44;100.00;102407.09;5075125;28;20458;-80
2022/03/11 03:59:20;;;;;;;69.72;63.30;;;;;;;-8.73;100.00;102407.88;5077341;28;20056;-80
2022/03/11 04:01:46;;;;;;;68.30;61.17;;;;;;;-8.69;100.00;102403.47;5075127;28;20048;-80
2022/03/11 04:04:13;;;;;;;71.35;63.83;;;;;;;-9.01;100.00;102406.00;5069248;28;20412;-80
2022/03/11 04:06:42;;;;;;;70.47;63.00;;;;;;;-8.72;100.00;102406.13;5072103;28;20373;-80
2022/03/11 04:09:09;;;;;;;73.63;66.28;;;;;;;-8.59;100.00;102407.53;5069889;28;20425;-81
2022/03/11 04:11:36;;;;;;;65.22;59.28;;;;;;;-8.73;100.00;102413.03;5073471;28;20546;-80
2022/03/11 04:14:04;;;;;;;63.30;57.35;;;;;;;-8.92;100.00;102414.41;5076392;28;20070;-80
2022/03/11 04:16:31;;;;;;;61.78;56.15;;;;;;;-8.92;100.00;102410.09;5052563;28;20041;-81
2022/03/11 04:18:59;;;;;;;66.43;59.95;;;;;;;-8.85;100.00;102405.63;5054231;28;20107;-79
2022/03/11 04:21:26;;;;;;;65.13;59.00;;;;;;;-8.82;100.00;102411.53;5065856;28;20080;-80
2022/03/11 04:23:53;;;;;;;68.40;61.38;;;;;;;-8.91;100.00;102400.63;5058898;28;20044;-79
2022/03/11 04:26:19;;;;;;;64.30;57.90;;;;;;;-9.07;100.00;102403.59;5054330;28;20559;-80
2022/03/11 04:28:46;;;;;;;67.13;59.92;;;;;;;-8.84;100.00;102404.72;5067257;28;20482;-79
2022/03/11 04:31:14;;;;;;;67.53;60.53;;;;;;;-8.74;100.00;102402.75;5067077;28;20059;-80
2022/03/11 04:33:42;;;;;;;60.78;54.40;;;;;;;-8.90;100.00;102403.16;5065577;28;20049;-82
2022/03/11 04:36:10;;;;;;;60.30;54.10;;;;;;;-9.16;100.00;102408.13;5060016;28;20045;-80
2022/03/11 04:38:37;;;;;;;62.03;55.58;;;;;;;-9.48;100.00;102407.16;5061742;28;20114;-79
2022/03/11 04:41:03;;;;;;;59.28;53.00;;;;;;;-9.20;100.00;102416.78;5064865;28;20464;-81
2022/03/11 04:43:30;;;;;;;57.53;51.28;;;;;;;-9.00;100.00;102415.41;5048602;28;20162;-80
2022/03/11 04:45:57;;;;;;;59.13;53.17;;;;;;;-8.95;100.00;102430.78;5060451;28;20045;-81
2022/03/11 04:48:25;;;;;;;70.18;59.65;;;;;;;-9.26;100.00;102421.22;5063484;28;20102;-82
2022/03/11 04:50:52;;;;;;;87.13;71.32;;;;;;;-9.11;100.00;102425.13;5067889;28;20044;-80
2022/03/11 04:53:19;;;;;;;103.93;82.30;;;;;;;-9.10;100.00;102429.41;5061622;28;20522;-80
2022/03/11 04:55:46;;;;;;;128.68;87.32;;;;;;;-9.10;100.00;102424.25;5057923;28;20454;-80
2022/03/11 04:58:12;;;;;;;108.15;79.93;;;;;;;-8.94;100.00;102429.88;5064511;28;20053;-81
2022/03/11 05:00:42;;;;;;;93.47;73.97;;;;;;;-8.99;100.00;102427.41;5062300;28;20526;-82
2022/03/11 05:03:09;;;;;;;88.72;67.57;;;;;;;-8.78;100.00;102430.31;5069775;28;20041;-80
2022/03/11 05:05:37;;;;;;;94.85;73.32;;;;;;;-8.72;100.00;102435.31;5054821;28;20459;-80
2022/03/11 05:08:04;;;;;;;81.18;64.72;;;;;;;-8.64;100.00;102435.13;5050017;28;20538;-81
2022/03/11 05:10:30;;;;;;;79.07;66.95;;;;;;;-8.40;100.00;102434.47;5060093;28;20048;-81
2022/03/11 05:12:57;;;;;;;72.93;62.58;;;;;;;-8.30;100.00;102447.91;5056835;28;20106;-82
2022/03/11 05:15:26;;;;;;;75.80;59.95;;;;;;;-8.32;100.00;102444.53;5063662;28;20041;-82
2022/03/11 05:17:52;;;;;;;116.53;68.32;;;;;;;-8.51;100.00;102436.47;5051737;28;20049;-79
2022/03/11 05:20:19;;;;;;;109.47;71.53;;;;;;;-8.25;100.00;102438.31;5059636;28;20049;-82
2022/03/11 05:22:47;;;;;;;95.50;68.35;;;;;;;-8.12;100.00;102446.56;5059974;28;20049;-81
2022/03/11 05:25:14;;;;;;;102.80;69.57;;;;;;;-7.74;100.00;102440.28;5057484;28;20044;-81
2022/03/11 05:27:41;;;;;;;95.70;68.45;;;;;;;-7.77;100.00;102430.06;5059518;28;20037;-82
2022/03/11 05:30:09;;;;;;;107.55;73.45;;;;;;;-7.60;100.00;102437.28;5060068;28;20044;-80
2022/03/11 05:32:41;;;;;;;105.93;75.05;;;;;;;-7.18;100.00;102442.84;5051785;28;20237;-81
2022/03/11 05:35:09;;;;;;;88.70;66.75;;;;;;;-6.82;100.00;102439.94;5045132;28;20048;-80
2022/03/11 05:37:35;;;;;;;56.75;51.25;;;;;;;-6.01;100.00;102431.91;5055008;28;20045;-81
2022/03/11 05:40:04;;;;;;;50.38;46.70;;;;;;;-5.36;100.00;102426.78;5065751;28;20044;-80
2022/03/11 05:42:31;;;;;;;51.45;47.90;;;;;;;-5.19;100.00;102431.31;5064156;28;20133;-81
2022/03/11 05:44:58;;;;;;;50.97;47.35;;;;;;;-4.86;100.00;102431.69;5055787;28;20110;-82
2022/03/11 05:47:25;;;;;;;51.80;48.00;;;;;;;-4.71;100.00;102431.03;5060999;28;20106;-82
2022/03/11 05:49:51;;;;;;;50.58;46.58;;;;;;;-4.61;100.00;102421.09;5059228;28;20052;-80
2022/03/11 05:52:18;;;;;;;68.63;63.65;;;;;;;-4.47;100.00;102420.50;5065645;28;20052;-81
2022/03/11 05:54:45;;;;;;;74.63;69.05;;;;;;;-4.27;100.00;102432.59;5060192;28;20118;-82
2022/03/11 05:57:13;;;;;;;77.43;71.43;;;;;;;-4.22;100.00;102426.28;5062969;28;20106;-82
2022/03/11 05:59:40;;;;;;;78.32;71.95;;;;;;;-4.03;100.00;102431.50;5059125;28;20455;-80
2022/03/11 06:02:06;;;;;;;76.72;70.78;;;;;;;-3.95;100.00;102429.41;5070756;28;20056;-81
2022/03/11 06:04:33;;;;;;;77.97;71.90;;;;;;;-3.82;100.00;102442.66;5053592;28;20485;-80
2022/03/11 06:07:00;;;;;;;74.65;68.75;;;;;;;-3.69;100.00;102436.00;5045742;28;20487;-82
2022/03/11 06:09:27;;;;;;;75.95;70.10;;;;;;;-3.67;100.00;102438.50;5062785;28;20550;-82
2022/03/11 06:11:54;;;;;;;73.95;68.22;;;;;;;-3.53;100.00;102441.31;5060043;28;20177;-80
2022/03/11 06:14:22;;;;;;;75.85;70.22;;;;;;;-3.34;100.00;102433.47;5056596;28;20045;-80
2022/03/11 06:16:49;;;;;;;82.20;75.85;;;;;;;-3.37;100.00;102449.22;5053509;28;20098;-81
2022/03/11 06:19:16;;;;;;;80.53;74.32;;;;;;;-3.19;100.00;102449.25;5049460;28;20390;-79
2022/03/11 06:21:43;;;;;;;84.40;77.72;;;;;;;-3.17;100.00;102447.44;5065314;28;20109;-82
2022/03/11 06:24:09;;;;;;;81.90;75.13;;;;;;;-3.05;100.00;102454.63;5062249;28;20095;-82
2022/03/11 06:26:36;;;;;;;84.35;77.82;;;;;;;-2.82;100.00;102469.91;5061927;28;20126;-79
2022/03/11 06:29:03;;;;;;;79.88;73.63;;;;;;;-2.77;100.00;102464.50;5063421;28;20114;-82
2022/03/11 06:31:31;;;;;;;75.50;68.90;;;;;;;-2.51;100.00;102476.19;5065097;28;20058;-83
2022/03/11 06:34:01;;;;;;;82.35;75.45;;;;;;;-2.60;100.00;102459.28;5060860;28;20045;-81
2022/03/11 06:36:28;;;;;;;83.53;76.82;;;;;;;-2.42;100.00;102472.25;5063646;28;20044;-79
2022/03/11 06:38:55;;;;;;;81.53;75.18;;;;;;;-2.13;100.00;102462.97;5064073;28;20052;-82
2022/03/11 06:41:22;;;;;;;77.50;71.60;;;;;;;-2.07;100.00;102466.06;5062874;28;20131;-80
2022/03/11 06:43:50;;;;;;;79.90;73.82;;;;;;;-2.12;100.00;102468.09;5061584;28;20037;-80
2022/03/11 06:46:17;;;;;;;84.53;77.95;;;;;;;-2.00;100.00;102466.59;5058994;28;20127;-82
2022/03/11 06:48:45;;;;;;;86.80;79.65;;;;;;;-1.74;100.00;102464.34;5063270;28;20045;-82
2022/03/11 06:51:12;;;;;;;82.93;76.22;;;;;;;-1.81;100.00;102466.47;5063349;28;20053;-80
2022/03/11 06:53:39;;;;;;;83.43;76.75;;;;;;;-1.89;100.00;102461.66;5058845;28;20129;-80
2022/03/11 06:56:05;;;;;;;83.00;76.22;;;;;;;-1.40;100.00;102463.34;5059212;28;20048;-80
2022/03/11 06:58:33;;;;;;;79.78;73.88;;;;;;;-1.61;100.00;102457.53;5060160;28;20052;-80
2022/03/11 07:01:00;;;;;;;78.55;72.53;;;;;;;-1.62;99.78;102461.91;5046663;28;20525;-81
2022/03/11 07:03:26;;;;;;;79.65;73.07;;;;;;;-1.57;100.00;102461.69;5057767;28;20045;-81
2022/03/11 07:05:54;;;;;;;85.45;78.28;;;;;;;-0.96;100.00;102458.22;5058238;28;20045;-82
2022/03/11 07:08:21;;;;;;;87.75;80.53;;;;;;;-1.14;100.00;102459.28;5064142;28;20040;-80
2022/03/11 07:10:48;;;;;;;85.90;78.70;;;;;;;-1.14;99.08;102451.44;5061226;28;20041;-83
2022/03/11 07:13:14;;;;;;;86.40;79.50;;;;;;;-0.90;100.00;102450.97;5063625;28;20110;-81
2022/03/11 07:15:41;;;;;;;83.10;75.95;;;;;;;-0.48;99.72;102458.88;5062859;28;20473;-80
2022/03/11 07:18:08;;;;;;;82.15;75.40;;;;;;;-0.76;95.25;102453.59;5055551;28;20370;-80
2022/03/11 07:20:35;;;;;;;80.85;74.35;;;;;;;-0.46;93.80;102459.63;5053267;28;20110;-81
2022/03/11 07:23:03;;;;;;;76.78;70.78;;;;;;;-0.25;92.58;102459.28;5053528;28;20087;-80
2022/03/11 07:25:30;;;;;;;77.82;71.93;;;;;;;-0.06;91.76;102458.97;5061332;28;20045;-81
2022/03/11 07:27:56;;;;;;;77.40;71.82;;;;;;;0.02;88.41;102461.97;5064154;28;20056;-80
2022/03/11 07:30:23;;;;;;;81.05;74.50;;;;;;;0.36;93.90;102457.25;5057139;28;20045;-81
2022/03/11 07:32:52;;;;;;;80.63;74.50;;;;;;;0.65;88.31;102453.63;5050828;28;20114;-81
2022/03/11 07:35:20;;;;;;;80.78;74.35;;;;;;;0.55;95.16;102451.72;5051590;28;20063;-80
2022/03/11 07:37:47;;;;;;;90.03;82.63;;;;;;;-0.35;97.92;102452.94;5053034;28;20064;-81
2022/03/11 07:40:15;;;;;;;91.28;83.95;;;;;;;-0.72;100.00;102455.97;4982897;28;20123;-80
2022/03/11 07:42:44;;;;;;;74.47;68.97;;;;;;;1.60;100.00;102454.31;5032079;28;20057;-81
2022/03/11 07:45:18;;;;;;;92.72;84.65;;;;;;;-0.95;100.00;102439.03;5051788;28;20068;-78
2022/03/11 07:47:45;;;;;;;96.45;87.97;;;;;;;-1.39;100.00;102444.19;5042808;28;20115;-81
2022/03/11 07:50:12;;;;;;;86.60;79.63;;;;;;;0.98;100.00;102435.84;5045714;28;20029;-79
2022/03/11 07:52:40;;;;;;;88.43;81.05;;;;;;;0.80;96.40;102433.47;5067950;28;20044;-80
2022/03/11 07:55:10;;;;;;;91.22;83.95;;;;;;;0.29;100.00;102432.44;5048028;28;20514;-81
2022/03/11 07:57:44;;;;;;;88.88;82.00;;;;;;;0.33;85.45;102433.91;5053609;28;20053;-79
2022/03/11 08:00:13;;;;;;;84.45;78.15;;;;;;;0.05;100.00;102426.97;5050772;28;20123;-81
2022/03/11 08:02:40;;;;;;;81.55;75.18;;;;;;;-0.69;100.00;102431.47;5052017;28;20064;-81
2022/03/11 08:05:14;;;;;;;90.93;83.70;;;;;;;0.49;91.70;102420.72;5069812;28;20068;-80
2022/03/11 08:07:48;;;;;;;86.10;79.50;;;;;;;-0.58;100.00;102425.59;5039081;28;20525;-79
2022/03/11 08:10:25;;;;;;;85.25;79.00;;;;;;;-0.05;75.99;102434.56;5043589;28;20195;-80
2022/03/11 08:12:54;;;;;;;84.20;78.03;;;;;;;-1.09;79.18;102420.75;5051611;28;20057;-79
2022/03/11 08:15:31;;;;;;;84.25;77.55;;;;;;;-0.64;81.71;102424.16;5050712;28;20033;-78
2022/03/11 08:18:13;;;;;;;84.85;78.75;;;;;;;-0.21;85.52;102426.81;5057104;28;20076;-80
2022/03/11 08:20:40;;;;;;;82.45;76.43;;;;;;;0.34;69.38;102422.53;5055670;28;20053;-80
2022/03/11 08:23:10;;;;;;;82.07;75.95;;;;;;;0.27;79.63;102418.63;5045016;28;20084;-79
2022/03/11 08:25:37;;;;;;;86.80;80.18;;;;;;;0.74;77.49;102420.81;5055881;28;20029;-80
2022/03/11 08:28:10;;;;;;;88.60;81.95;;;;;;;0.12;78.45;102420.44;5048709;28;20106;-78
2022/03/11 08:30:37;;;;;;;90.55;83.78;;;;;;;-0.44;88.81;102430.00;5049372;28;20060;-79
2022/03/11 08:33:22;;;;;;;87.18;80.78;;;;;;;1.10;76.92;102421.94;5033605;28;20049;-79
2022/03/11 08:35:53;;;;;;;86.20;79.80;;;;;;;0.30;75.55;102415.81;5041307;28;20045;-80
2022/03/11 08:38:42;;;;;;;85.90;79.20;;;;;;;0.31;69.32;102412.28;5050364;28;20103;-82
2022/03/11 08:41:27;;;;;;;85.65;79.28;;;;;;;1.10;83.57;102411.47;5048796;28;20041;-80
2022/03/11 08:44:03;;;;;;;86.78;80.40;;;;;;;-0.18;76.17;102412.72;5046280;28;20125;-80
2022/03/11 08:46:32;;;;;;;88.20;81.53;;;;;;;-0.45;80.81;102400.44;5055059;28;20038;-78
2022/03/11 08:48:59;;;;;;;81.10;75.57;;;;;;;0.22;79.44;102409.31;5047056;28;20025;-77
2022/03/11 08:51:26;;;;;;;80.80;75.20;;;;;;;0.81;80.82;102414.22;5052327;28;20048;-78
2022/03/11 08:54:07;;;;;;;87.38;80.97;;;;;;;-0.32;86.55;102408.34;5056620;28;20061;-78
2022/03/11 08:56:40;;;;;;;86.97;80.47;;;;;;;-0.04;72.20;102397.03;5061025;28;20029;-78
2022/03/11 08:59:20;;;;;;;87.20;80.68;;;;;;;0.15;92.90;102405.41;5054496;28;20056;-80
2022/03/11 09:01:46;;;;;;;91.97;85.00;;;;;;;0.15;82.91;102404.56;5037456;28;20128;-78
2022/03/11 09:04:23;;;;;;;89.30;82.72;;;;;;;-0.90;77.27;102404.84;5046544;28;20053;-79
2022/03/11 09:06:55;;;;;;;88.32;81.90;;;;;;;1.02;92.65;102408.53;5054341;28;20080;-79
2022/03/11 09:09:22;;;;;;;88.13;81.82;;;;;;;0.71;73.66;102407.09;5047649;28;20470;-81
2022/03/11 09:14:27;;;;;;;89.18;82.85;;;;;;;4.53;62.58;102396.44;5063097;28;20045;-93
2022/03/11 09:19:42;;;;;;;87.80;81.45;;;;;;;3.35;53.37;102392.66;5097941;27;20401;-80
2022/03/11 09:22:09;;;;;;;82.45;76.20;;;;;;;1.89;57.53;102405.16;5084714;28;20052;-82
2022/03/11 09:24:36;;;;;;;87.63;81.30;;;;;;;1.82;64.84;102386.41;5066261;28;20111;-81
2022/03/11 09:27:03;;;;;;;90.03;83.40;;;;;;;1.99;58.28;102376.50;5101532;22;20048;-79
2022/03/11 09:29:30;;;;;;;91.97;85.10;;;;;;;1.94;59.94;102389.13;5080879;28;20049;-79
2022/03/11 09:31:57;;;;;;;91.25;84.65;;;;;;;4.43;60.40;102386.81;5084664;28;20028;-79
2022/03/11 09:34:26;;;;;;;91.05;84.55;;;;;;;3.62;54.12;102389.69;5069369;28;20037;-79
2022/03/11 09:37:00;;;;;;;87.15;81.00;;;;;;;3.85;53.75;102392.31;5081024;28;20461;-81
2022/03/11 09:39:43;;;;;;;90.72;84.15;;;;;;;1.51;53.36;102400.81;5089015;28;20049;-79
2022/03/11 09:42:16;;;;;;;92.32;85.32;;;;;;;0.37;59.42;102386.59;5070237;28;20057;-79
2022/03/11 09:44:53;;;;;;;91.03;84.20;;;;;;;1.31;57.43;102377.78;5075935;28;20044;-81
2022/03/11 09:47:26;;;;;;;89.07;82.68;;;;;;;3.28;62.21;102369.63;5082727;28;20370;-80
2022/03/11 09:50:01;;;;;;;89.78;83.18;;;;;;;2.86;60.71;102379.78;5076419;28;20045;-80
2022/03/11 09:52:32;;;;;;;87.68;81.18;;;;;;;5.11;54.97;102367.06;5066589;28;20121;-81
2022/03/11 09:55:04;;;;;;;88.88;82.47;;;;;;;3.18;73.81;102378.19;5078097;28;20401;-80
2022/03/11 09:57:44;;;;;;;82.75;76.75;;;;;;;0.65;76.59;102372.56;5073843;28;20469;-79
2022/03/11 10:00:12;;;;;;;83.15;77.25;;;;;;;1.18;77.79;102377.78;5079555;28;20028;-79
2022/03/11 10:02:42;;;;;;;82.43;76.45;;;;;;;-0.34;83.46;102376.28;5074909;28;20029;-81
2022/03/11 10:05:17;;;;;;;84.65;78.38;;;;;;;-0.73;93.58;102375.13;5079265;28;20489;-79
2022/03/11 10:08:05;;;;;;;82.47;76.45;;;;;;;-0.05;100.00;102372.69;5073240;28;20048;-79
2022/03/11 10:10:33;;;;;;;80.07;74.32;;;;;;;0.03;100.00;102382.69;5084184;28;20035;-80
2022/03/11 10:13:00;;;;;;;84.75;78.53;;;;;;;-0.92;100.00;102376.22;5067484;28;20439;-78
2022/03/11 10:15:28;;;;;;;81.75;75.57;;;;;;;0.26;100.00;102377.75;5099471;22;20049;-81
2022/03/11 10:17:56;;;;;;;85.28;78.88;;;;;;;-0.17;100.00;102383.91;5066871;28;20049;-79
2022/03/11 10:20:23;;;;;;;83.95;77.80;;;;;;;0.44;100.00;102380.00;5080989;28;20041;-80
2022/03/11 10:22:50;;;;;;;86.20;79.65;;;;;;;-0.09;100.00;102371.22;5088852;28;20037;-78
2022/03/11 10:25:20;;;;;;;86.82;80.07;;;;;;;1.00;100.00;102379.00;5079835;28;20049;-79
2022/03/11 10:27:55;;;;;;;89.20;82.43;;;;;;;0.27;100.00;102375.03;5072134;28;20049;-79
2022/03/11 10:30:31;;;;;;;84.25;77.82;;;;;;;1.30;100.00;102379.56;5072888;28;20045;-81
2022/03/11 10:32:59;;;;;;;87.65;80.72;;;;;;;1.45;100.00;102366.34;5059329;28;20109;-78
2022/03/11 10:35:36;;;;;;;87.60;81.20;;;;;;;-0.31;100.00;102368.25;5061531;28;20087;-80
2022/03/11 10:38:26;;;;;;;79.95;74.35;;;;;;;-0.42;100.00;102362.84;5068303;28;20051;-78
2022/03/11 10:41:00;;;;;;;85.22;79.00;;;;;;;0.20;100.00;102358.91;5052539;28;20052;-82
2022/03/11 10:43:29;;;;;;;86.13;79.72;;;;;;;-0.61;100.00;102355.28;5070403;28;20048;-82
2022/03/11 10:45:58;;;;;;;87.97;81.40;;;;;;;1.25;100.00;102352.84;5083388;22;20723;-92
2022/03/11 10:48:45;;;;;;;85.95;79.50;;;;;;;0.85;89.89;102344.25;5098039;28;20489;-92
2022/03/11 10:51:13;;;;;;;92.90;85.32;;;;;;;0.49;100.00;102356.19;5095525;28;20044;-93
2022/03/11 10:56:09;;;;;;;79.63;73.60;;;;;;;-0.40;100.00;102358.38;5092747;28;20459;-93
2022/03/11 10:58:38;;;;;;;78.65;72.65;;;;;;;-0.39;100.00;102352.19;5100412;28;20059;-92
2022/03/11 11:01:05;;;;;;;78.78;73.07;;;;;;;0.41;100.00;102348.00;5100767;28;20500;-92
2022/03/11 11:03:34;;;;;;;76.90;71.07;;;;;;;-0.94;100.00;102345.94;5079579;28;20055;-92
2022/03/11 11:08:41;;;;;;;80.97;74.78;;;;;;;0.61;100.00;102358.00;5091572;27;20405;-91
2022/03/11 11:11:08;;;;;;;83.43;76.55;;;;;;;-0.66;100.00;102352.97;5086314;28;20046;-93
2022/03/11 11:13:35;;;;;;;82.80;76.03;;;;;;;-1.34;100.00;102358.72;5078706;28;20048;-91
2022/03/11 11:16:03;;;;;;;86.43;79.55;;;;;;;-1.85;100.00;102358.13;5077324;28;20048;-91
2022/03/11 11:18:32;;;;;;;88.63;81.47;;;;;;;-0.52;100.00;102352.97;5075950;28;20114;-93
2022/03/11 11:21:01;;;;;;;91.95;84.45;;;;;;;-0.96;100.00;102334.78;5074182;28;20053;-90
2022/03/11 11:23:29;;;;;;;87.75;80.28;;;;;;;0.50;100.00;102342.19;5077695;28;20051;-93
2022/03/11 11:25:57;;;;;;;88.53;81.43;;;;;;;0.69;100.00;102339.19;5076982;28;20048;-93
2022/03/11 11:28:25;;;;;;;95.30;87.10;;;;;;;0.47;100.00;102339.75;5075533;28;20079;-92